Rhumbline — WDJ3581 — position and weather

sailwx.info

Track history (hours):
 
Tides and Currents Weather Stations Pressure Air Temp Water Temp Dewpoint Dewpoint Depression Visibility Wind Speed Wind Dir Waves Ship Positions

Rhumbline

Owner: Favata MR, Blaise A, Marysville, WA. More information available from US FCC via Universal Licensing System and Coast Guard Vessel Documentation Center.

Last reported at 2017-Oct-22 02:31 UTC. Time now 2017-Oct-23 02:46 UTC.
Position N 33°57' W 118°56'.

Length 12 m.

Type: Sailing vessel. MMSI: 367769340.

Date/timePositionNaut miles runAvg speedWind from/ knotsBaromVisibWave heightAir tempDewpointWater temp
2017-Oct-22 02:31N 33°57' W 118°56'1 6.8
2017-Oct-22 02:20N 33°57' W 118°57'2 5.8
2017-Oct-22 01:55N 33°59' W 118°60'3 6.3
2017-Oct-22 01:26N 34°00' W 119°03'3 5.6
2017-Oct-22 00:56N 34°02' W 119°06'3 6.2
2017-Oct-22 00:30N 34°03' W 119°09'4 6.4
2017-Oct-21 23:54N 34°05' W 119°13'4 6.7
2017-Oct-21 23:19N 34°07' W 119°16'2 6.8
2017-Oct-21 22:58N 34°09' W 119°19'4 6.8
2017-Oct-21 22:27N 34°11' W 119°22'3 6.4
2017-Oct-21 21:55N 34°13' W 119°25'5 6.3
2017-Oct-21 21:11N 34°16' W 119°29'2 6.2
2017-Oct-21 20:53N 34°17' W 119°31'4 5.9
2017-Oct-21 20:14N 34°20' W 119°35'1 5.6
2017-Oct-21 20:00N 34°21' W 119°36'  
2017-Oct-18 12:43N 34°24' W 119°42'1 3.0
2017-Oct-18 12:22N 34°23' W 119°41'3 5.3
2017-Oct-18 11:49N 34°22' W 119°44'2 5.2
2017-Oct-18 11:25N 34°23' W 119°47'2 4.9
2017-Oct-18 10:56N 34°23' W 119°49'2 4.7
2017-Oct-18 10:30N 34°24' W 119°52'3 5.2
2017-Oct-18 09:57N 34°25' W 119°55'3 5.0
2017-Oct-18 09:21N 34°25' W 119°59'2 5.2
2017-Oct-18 08:57N 34°26' W 120°01'2 5.1
2017-Oct-18 08:30N 34°26' W 120°04'3 5.0
2017-Oct-18 07:55N 34°26' W 120°08'3 5.2
2017-Oct-18 07:25N 34°26' W 120°11'2 5.0
2017-Oct-18 06:57N 34°24' W 120°13'2 3.3
2017-Oct-18 06:29N 34°24' W 120°15'3 5.2
2017-Oct-18 05:59N 34°24' W 120°18'2 4.2
2017-Oct-18 05:30N 34°25' W 120°20'2 3.6
2017-Oct-18 05:00N 34°25' W 120°23'2 3.8
2017-Oct-18 04:29N 34°25' W 120°25'3 5.3
2017-Oct-18 04:00N 34°25' W 120°28'2 4.8
2017-Oct-18 03:30N 34°26' W 120°31'2 5.0
2017-Oct-18 03:00N 34°28' W 120°33'3 3.9
2017-Oct-18 02:14N 34°30' W 120°36'1 3.7
2017-Oct-18 02:00N 34°30' W 120°36'3 7.1
2017-Oct-18 01:30N 34°33' W 120°39'6 5.3
2017-Oct-18 00:26N 34°37' W 120°44'2 4.2
2017-Oct-18 00:00N 34°39' W 120°45'4 5.3
2017-Oct-17 23:20N 34°42' W 120°45'1 4.5
2017-Oct-17 23:00N 34°43' W 120°46'2 4.9
2017-Oct-17 22:30N 34°45' W 120°47'3 5.7
2017-Oct-17 22:00N 34°48' W 120°47'3 6.3
2017-Oct-17 21:30N 34°51' W 120°47'3 6.1
2017-Oct-17 21:00N 34°55' W 120°47'3 5.7
2017-Oct-17 20:30N 34°57' W 120°47'5 4.2
2017-Oct-17 19:25N 35°02' W 120°46'2 5.5
2017-Oct-17 19:00N 35°04' W 120°46'3 5.1
2017-Oct-17 18:26N 35°07' W 120°46'2 1.5
2017-Oct-17 17:07N 35°09' W 120°45'1 5.8
2017-Oct-17 17:00N 35°08' W 120°46'14 4.4
2017-Oct-17 13:45N 35°12' W 121°03'  
2017-Oct-14 21:29N 36°36' W 121°53'0 0.4
2017-Oct-14 20:45N 36°37' W 121°54'52 2.0
2017-Oct-13 18:35N 37°18' W 122°32'2 6.9
2017-Oct-13 18:21N 37°20' W 122°32'2 6.9
2017-Oct-13 17:59N 37°22' W 122°32'3 6.6
2017-Oct-13 17:30N 37°25' W 122°31'3 5.7
2017-Oct-13 17:00N 37°28' W 122°31'1 2.2
2017-Oct-13 16:30N 37°28' W 122°30'2 3.5
2017-Oct-13 16:00N 37°30' W 122°29'  
Track history (hours):
 
Tides and Currents Weather Stations Pressure Air Temp Water Temp Dewpoint Dewpoint Depression Visibility Wind Speed Wind Dir Waves Ship Positions

Rhumbline

Owner: Favata MR, Blaise A, Marysville, WA. More information available from US FCC via Universal Licensing System and Coast Guard Vessel Documentation Center.

Last reported at 2017-Oct-22 02:31 UTC. Time now 2017-Oct-23 02:46 UTC.
Position N 33°57' W 118°56'.

Length 12 m.

Type: Sailing vessel. MMSI: 367769340.

Date/timePositionNaut miles runAvg speedWind from/ knotsBaromVisibWave heightAir tempDewpointWater temp
2017-Oct-22 02:31N 33°57' W 118°56'1 6.8
2017-Oct-22 02:20N 33°57' W 118°57'2 5.8
2017-Oct-22 01:55N 33°59' W 118°60'3 6.3
2017-Oct-22 01:26N 34°00' W 119°03'3 5.6
2017-Oct-22 00:56N 34°02' W 119°06'3 6.2
2017-Oct-22 00:30N 34°03' W 119°09'4 6.4
2017-Oct-21 23:54N 34°05' W 119°13'4 6.7
2017-Oct-21 23:19N 34°07' W 119°16'2 6.8
2017-Oct-21 22:58N 34°09' W 119°19'4 6.8
2017-Oct-21 22:27N 34°11' W 119°22'3 6.4
2017-Oct-21 21:55N 34°13' W 119°25'5 6.3
2017-Oct-21 21:11N 34°16' W 119°29'2 6.2
2017-Oct-21 20:53N 34°17' W 119°31'4 5.9
2017-Oct-21 20:14N 34°20' W 119°35'1 5.6
2017-Oct-21 20:00N 34°21' W 119°36'  
2017-Oct-18 12:43N 34°24' W 119°42'1 3.0
2017-Oct-18 12:22N 34°23' W 119°41'3 5.3
2017-Oct-18 11:49N 34°22' W 119°44'2 5.2
2017-Oct-18 11:25N 34°23' W 119°47'2 4.9
2017-Oct-18 10:56N 34°23' W 119°49'2 4.7
2017-Oct-18 10:30N 34°24' W 119°52'3 5.2
2017-Oct-18 09:57N 34°25' W 119°55'3 5.0
2017-Oct-18 09:21N 34°25' W 119°59'2 5.2
2017-Oct-18 08:57N 34°26' W 120°01'2 5.1
2017-Oct-18 08:30N 34°26' W 120°04'3 5.0
2017-Oct-18 07:55N 34°26' W 120°08'3 5.2
2017-Oct-18 07:25N 34°26' W 120°11'2 5.0
2017-Oct-18 06:57N 34°24' W 120°13'2 3.3
2017-Oct-18 06:29N 34°24' W 120°15'3 5.2
2017-Oct-18 05:59N 34°24' W 120°18'2 4.2
2017-Oct-18 05:30N 34°25' W 120°20'2 3.6
2017-Oct-18 05:00N 34°25' W 120°23'2 3.8
2017-Oct-18 04:29N 34°25' W 120°25'3 5.3
2017-Oct-18 04:00N 34°25' W 120°28'2 4.8
2017-Oct-18 03:30N 34°26' W 120°31'2 5.0
2017-Oct-18 03:00N 34°28' W 120°33'3 3.9
2017-Oct-18 02:14N 34°30' W 120°36'1 3.7
2017-Oct-18 02:00N 34°30' W 120°36'3 7.1
2017-Oct-18 01:30N 34°33' W 120°39'6 5.3
2017-Oct-18 00:26N 34°37' W 120°44'2 4.2
2017-Oct-18 00:00N 34°39' W 120°45'4 5.3
2017-Oct-17 23:20N 34°42' W 120°45'1 4.5
2017-Oct-17 23:00N 34°43' W 120°46'2 4.9
2017-Oct-17 22:30N 34°45' W 120°47'3 5.7
2017-Oct-17 22:00N 34°48' W 120°47'3 6.3
2017-Oct-17 21:30N 34°51' W 120°47'3 6.1
2017-Oct-17 21:00N 34°55' W 120°47'3 5.7
2017-Oct-17 20:30N 34°57' W 120°47'5 4.2
2017-Oct-17 19:25N 35°02' W 120°46'2 5.5
2017-Oct-17 19:00N 35°04' W 120°46'3 5.1
2017-Oct-17 18:26N 35°07' W 120°46'2 1.5
2017-Oct-17 17:07N 35°09' W 120°45'1 5.8
2017-Oct-17 17:00N 35°08' W 120°46'14 4.4
2017-Oct-17 13:45N 35°12' W 121°03'  
2017-Oct-14 21:29N 36°36' W 121°53'0 0.4
2017-Oct-14 20:45N 36°37' W 121°54'52 2.0
2017-Oct-13 18:35N 37°18' W 122°32'2 6.9
2017-Oct-13 18:21N 37°20' W 122°32'2 6.9
2017-Oct-13 17:59N 37°22' W 122°32'3 6.6
2017-Oct-13 17:30N 37°25' W 122°31'3 5.7
2017-Oct-13 17:00N 37°28' W 122°31'1 2.2
2017-Oct-13 16:30N 37°28' W 122°30'2 3.5
2017-Oct-13 16:00N 37°30' W 122°29'  

Dump ship's entire track history